Kenosha, WI (53140)

7:59 AM CST on December 05, 2016 (GMT -0600)
APRSWXNET | | Change Station

Elev 613 ft 42.60 °N, 87.83 °W | Updated 21 minutes ago

Overcast
Overcast
33 °F
Feels Like 33 °F
N
1
Wind Variable Wind from SW
Gusts 3.0 mph

Today
High -- | Low -- °F
--% Chance of Precip.
Yesterday
High -- | Low -- °F
Precip. -- in
Pressure 30.01 in
Visibility 3.0 miles
Clouds Overcast 600 ft
Windchill 33 °F
Dew Point 31 °F
Humidity 94%
Rainfall in
Snow Depth Not available.
7:06 AM 4:18 PM
Waxing Crescent, 32% visible
METAR KENW 051353Z 21008KT 3SM BR OVC006 01/M01 A2999 RMK AO2 CIG 004V008 SLP163 T00061006
Pressure 30.01 in
Visibility 3.0 miles
Clouds Overcast 600 ft
Windchill 33 °F
Dew Point 31 °F
Humidity 94%
Rainfall in
Snow Depth Not available.
7:06 AM 4:18 PM
Waxing Crescent, 32% visible
METAR KENW 051353Z 21008KT 3SM BR OVC006 01/M01 A2999 RMK AO2 CIG 004V008 SLP163 T00061006

10-Day Weather Forecast

Almanac

Astronomy

Dec. 05, 2016 Rise Set
Actual Time
Civil Twilight
Nautical Twilight
Astronomical Twilight
Moon
Length of Visible Light
Length of Day
Tomorrow will be .
, % of the Moon is Illuminated

Today's Extremes

State Highs State Lows

Community

WunderPhotos

Upload Photos

1,955,780 photos uploaded!

WunderBlog® & News

Nearby

Air Quality

  Air Quality AQ Index Pollutant
Not available.

Snow Depth

Station Depth Elevation

Earthquake Activity

City Distance Mag. Time & Date
Minimum magnitude displayed is 2.5.

Coastal Water Temperatures

Place Temperature

Stations

Nearby Weather Stations

Station Location Temp. Windchill Dew Point Humidity Wind Precip. Elev Updated Type
                   

Watches & Warnings

There are currently no watches in effect.